Time;durP1;ratioP1;P1;durP2;ratioP2;P2;SDS_P1;SDS_P2;PMS_P1;PMS_P2;Temp;Humidity;BMP_temperature;BMP_pressure;BME280_temperature;BME280_humidity;BME280_pressure;Samples;Min_cycle;Max_cycle;Signal;HPM_P1;HPM_P2
2022/04/08 00:00:01;;;;;;;5.90;1.40;;;11.60;98.30;;;;;;5111020;28;20463;-85
2022/04/08 00:02:28;;;;;;;6.57;1.67;;;11.60;98.10;;;;;;5104019;28;20436;-85
2022/04/08 00:04:57;;;;;;;8.00;1.60;;;11.50;97.90;;;;;;5101979;28;20504;-86
2022/04/08 00:07:24;;;;;;;7.00;2.10;;;11.50;97.90;;;;;;5110246;28;20421;-85
2022/04/08 00:09:51;;;;;;;3.57;1.03;;;11.40;98.20;;;;;;5107686;28;20938;-86
2022/04/08 00:12:18;;;;;;;4.57;1.03;;;11.50;98.10;;;;;;5117419;28;20491;-87
2022/04/08 00:14:45;;;;;;;3.90;1.43;;;11.40;98.00;;;;;;5117459;28;20426;-87
2022/04/08 00:17:13;;;;;;;5.17;1.40;;;11.50;97.90;;;;;;5117615;28;20450;-86
2022/04/08 00:19:49;;;;;;;5.60;1.83;;;11.40;97.50;;;;;;5101040;28;20463;-86
2022/04/08 00:22:18;;;;;;;15.97;2.17;;;11.40;97.70;;;;;;5102321;28;20454;-86
2022/04/08 00:24:44;;;;;;;5.03;1.40;;;11.40;97.90;;;;;;5117104;28;20465;-86
2022/04/08 00:27:14;;;;;;;6.90;1.40;;;11.50;97.20;;;;;;5117400;28;20428;-86
2022/04/08 00:29:41;;;;;;;5.40;1.43;;;11.40;97.40;;;;;;5115610;28;20410;-86
2022/04/08 00:32:08;;;;;;;5.13;1.53;;;11.30;97.40;;;;;;5112593;28;20494;-86
2022/04/08 00:34:37;;;;;;;5.33;1.47;;;11.40;97.10;;;;;;5105909;28;20453;-87
2022/04/08 00:37:04;;;;;;;5.57;1.43;;;11.50;96.70;;;;;;5115154;28;20453;-86
2022/04/08 00:39:32;;;;;;;5.20;1.40;;;11.40;96.40;;;;;;5116362;28;20455;-86
2022/04/08 00:42:01;;;;;;;4.57;1.53;;;11.50;96.50;;;;;;5116446;28;20472;-87
2022/04/08 00:44:29;;;;;;;6.70;1.77;;;11.50;96.40;;;;;;5103619;28;20417;-87
2022/04/08 00:46:56;;;;;;;6.37;1.10;;;11.50;96.50;;;;;;5098645;28;20465;-86
2022/04/08 00:49:23;;;;;;;8.90;1.87;;;11.50;96.70;;;;;;5107830;28;20534;-86
2022/04/08 00:51:52;;;;;;;4.60;1.57;;;11.30;97.10;;;;;;5112808;28;20471;-86
2022/04/08 00:54:20;;;;;;;5.70;1.30;;;11.30;97.40;;;;;;5115110;28;20433;-86
2022/04/08 00:56:47;;;;;;;7.03;1.60;;;11.30;97.50;;;;;;5107459;28;20813;-87
2022/04/08 00:59:27;;;;;;;5.30;1.20;;;11.30;97.80;;;;;;5105575;28;20471;-87
2022/04/08 01:01:54;;;;;;;5.20;1.63;;;11.40;97.90;;;;;;5104851;28;20504;-87
2022/04/08 01:04:22;;;;;;;4.93;1.53;;;11.40;97.70;;;;;;5102867;28;20434;-87
2022/04/08 01:06:50;;;;;;;7.33;1.70;;;11.40;97.70;;;;;;5106649;28;20413;-86
2022/04/08 01:09:17;;;;;;;4.53;1.53;;;11.40;97.80;;;;;;5110298;28;20476;-86
2022/04/08 01:11:44;;;;;;;6.73;1.77;;;11.40;98.10;;;;;;5111132;28;20431;-86
2022/04/08 01:14:12;;;;;;;6.77;1.60;;;11.20;97.90;;;;;;5108060;28;20481;-86
2022/04/08 01:16:40;;;;;;;8.03;1.90;;;11.30;98.00;;;;;;5114755;28;20431;-86
2022/04/08 01:19:07;;;;;;;4.10;1.20;;;11.40;98.00;;;;;;5111190;28;20466;-85
2022/04/08 01:21:35;;;;;;;5.03;1.77;;;11.20;98.20;;;;;;5104466;28;20446;-87
2022/04/08 01:24:04;;;;;;;5.87;1.50;;;11.30;98.00;;;;;;5103952;28;20516;-86
2022/04/08 01:26:32;;;;;;;11.60;1.30;;;11.30;98.00;;;;;;5103347;28;20451;-85
2022/04/08 01:28:59;;;;;;;3.67;1.00;;;11.30;97.60;;;;;;5107455;28;20447;-85
2022/04/08 01:31:30;;;;;;;5.33;1.50;;;11.10;97.70;;;;;;5104157;28;20517;-85
2022/04/08 01:33:59;;;;;;;11.03;2.20;;;11.20;97.90;;;;;;5109217;28;20502;-87
2022/04/08 01:36:26;;;;;;;7.13;1.73;;;11.10;97.30;;;;;;5105633;28;20474;-85
2022/04/08 01:38:53;;;;;;;6.70;1.93;;;11.10;97.50;;;;;;5104910;28;20501;-84
2022/04/08 01:41:28;;;;;;;4.67;1.67;;;11.10;97.40;;;;;;5113203;28;20450;-84
2022/04/08 01:43:56;;;;;;;6.63;1.67;;;11.10;97.40;;;;;;5108417;28;20484;-86
2022/04/08 01:46:23;;;;;;;5.70;1.60;;;11.10;97.50;;;;;;5102804;28;20421;-86
2022/04/08 01:48:53;;;;;;;5.50;1.30;;;11.20;97.60;;;;;;5105781;28;20478;-85
2022/04/08 01:51:20;;;;;;;5.10;1.43;;;11.20;97.50;;;;;;5103983;28;20469;-86
2022/04/08 01:53:47;;;;;;;5.23;1.70;;;11.10;97.70;;;;;;5103381;28;20449;-86
2022/04/08 01:56:14;;;;;;;5.00;1.23;;;11.00;98.10;;;;;;5104554;28;20429;-86
2022/04/08 01:58:42;;;;;;;7.93;1.70;;;11.10;97.90;;;;;;5104036;28;20887;-86
2022/04/08 02:01:11;;;;;;;6.67;1.63;;;11.00;98.30;;;;;;5104444;28;20454;-86
2022/04/08 02:03:38;;;;;;;4.67;1.40;;;11.10;98.30;;;;;;5103697;28;20529;-86
2022/04/08 02:06:05;;;;;;;4.10;1.50;;;11.10;98.00;;;;;;5105149;28;20435;-87
2022/04/08 02:08:32;;;;;;;6.83;1.17;;;11.10;98.10;;;;;;5108347;28;20547;-86
2022/04/08 02:10:59;;;;;;;4.93;1.50;;;11.20;97.80;;;;;;5111999;28;20446;-86
2022/04/08 02:13:26;;;;;;;10.00;1.47;;;11.20;98.00;;;;;;5106309;28;20456;-86
2022/04/08 02:15:53;;;;;;;7.03;1.20;;;11.10;97.80;;;;;;5104376;28;20756;-86
2022/04/08 02:18:21;;;;;;;5.47;1.33;;;11.00;97.70;;;;;;5117462;28;20474;-86
2022/04/08 02:20:50;;;;;;;5.07;1.20;;;11.00;97.50;;;;;;5120086;28;20421;-87
2022/04/08 02:23:17;;;;;;;6.57;1.80;;;11.00;97.70;;;;;;5119617;28;20471;-86
2022/04/08 02:25:46;;;;;;;4.60;1.60;;;10.80;98.00;;;;;;5111927;28;20446;-86
2022/04/08 02:28:13;;;;;;;7.30;1.80;;;10.90;97.90;;;;;;5100114;28;20475;-86
2022/04/08 02:30:40;;;;;;;4.83;1.63;;;10.80;98.00;;;;;;5099264;28;20549;-87
2022/04/08 02:33:06;;;;;;;5.73;1.53;;;10.80;98.50;;;;;;5105450;28;20482;-87
2022/04/08 02:35:35;;;;;;;4.80;1.50;;;10.90;97.80;;;;;;5108324;28;20493;-86
2022/04/08 02:38:02;;;;;;;4.63;1.40;;;10.90;97.70;;;;;;5107890;28;20467;-85
2022/04/08 02:40:28;;;;;;;5.13;1.57;;;10.90;97.70;;;;;;5103998;28;20450;-86
2022/04/08 02:42:55;;;;;;;5.40;1.60;;;10.80;98.00;;;;;;5105163;28;20617;-87
2022/04/08 02:45:22;;;;;;;4.73;1.23;;;10.80;98.10;;;;;;5106235;28;20450;-86
2022/04/08 02:47:49;;;;;;;4.00;1.20;;;10.80;98.30;;;;;;5107508;28;20569;-86
2022/04/08 02:50:16;;;;;;;6.47;1.40;;;10.90;98.10;;;;;;5108260;28;20479;-86
2022/04/08 02:52:44;;;;;;;5.73;1.53;;;10.70;98.30;;;;;;5106407;28;20478;-86
2022/04/08 02:55:11;;;;;;;4.30;1.27;;;10.80;98.50;;;;;;5105859;28;20463;-86
2022/04/08 02:57:44;;;;;;;4.27;1.20;;;10.80;98.60;;;;;;5105650;28;20481;-86
2022/04/08 03:00:14;;;;;;;5.37;1.47;;;10.90;98.70;;;;;;5102070;28;20406;-86
2022/04/08 03:02:41;;;;;;;6.87;1.40;;;10.90;98.60;;;;;;5098006;28;20542;-86
2022/04/08 03:05:09;;;;;;;4.30;1.20;;;11.00;98.60;;;;;;5097819;28;20467;-86
2022/04/08 03:07:36;;;;;;;5.97;1.40;;;11.00;98.60;;;;;;5097938;28;20849;-86
2022/04/08 03:10:05;;;;;;;7.77;1.50;;;10.90;98.70;;;;;;5099839;28;20464;-86
2022/04/08 03:12:33;;;;;;;4.77;1.17;;;10.90;98.80;;;;;;5099754;28;20577;-87
2022/04/08 03:15:02;;;;;;;3.60;1.17;;;10.90;98.80;;;;;;5112541;28;20602;-87
2022/04/08 03:17:28;;;;;;;6.67;1.03;;;10.80;98.70;;;;;;5114386;28;20446;-87
2022/04/08 03:19:57;;;;;;;5.50;1.40;;;10.90;98.70;;;;;;5107889;28;20447;-88
2022/04/08 03:22:24;;;;;;;5.30;1.57;;;10.90;98.20;;;;;;5110723;28;20500;-86
2022/04/08 03:24:52;;;;;;;3.60;1.50;;;10.90;97.80;;;;;;5109275;28;20459;-87
2022/04/08 03:27:21;;;;;;;6.40;1.43;;;10.90;97.70;;;;;;5114053;28;20463;-86
2022/04/08 03:29:48;;;;;;;4.17;1.63;;;11.00;97.70;;;;;;5108626;28;20425;-87
2022/04/08 03:32:16;;;;;;;5.50;1.63;;;10.80;97.70;;;;;;5114372;28;20474;-88
2022/04/08 03:34:43;;;;;;;8.30;1.50;;;10.80;97.70;;;;;;5108779;28;20430;-86
2022/04/08 03:37:10;;;;;;;4.70;1.60;;;10.80;97.50;;;;;;5105583;28;20478;-88
2022/04/08 03:39:39;;;;;;;4.30;1.30;;;10.90;97.50;;;;;;5100581;28;20467;-86
2022/04/08 03:42:07;;;;;;;5.50;1.90;;;10.90;97.00;;;;;;5101234;28;20432;-85
2022/04/08 03:44:35;;;;;;;8.73;1.60;;;10.80;97.40;;;;;;5107737;28;20470;-87
2022/04/08 03:47:02;;;;;;;3.60;1.60;;;10.70;97.30;;;;;;5109093;28;20451;-87
2022/04/08 03:49:32;;;;;;;8.07;1.63;;;10.70;97.60;;;;;;5104438;28;20466;-87
2022/04/08 03:52:00;;;;;;;9.13;1.50;;;10.70;97.20;;;;;;5113072;28;20427;-87
2022/04/08 03:54:27;;;;;;;4.77;1.30;;;10.70;97.00;;;;;;5112591;28;20486;-87
2022/04/08 03:56:55;;;;;;;5.40;1.30;;;10.90;96.70;;;;;;5106663;28;20450;-86
2022/04/08 03:59:22;;;;;;;4.80;1.60;;;10.90;96.50;;;;;;5106449;28;20494;-87
2022/04/08 04:01:51;;;;;;;5.57;1.83;;;10.60;96.60;;;;;;5104608;28;20465;-88
2022/04/08 04:04:18;;;;;;;5.57;1.50;;;10.60;96.70;;;;;;5103410;28;20533;-87
2022/04/08 04:06:45;;;;;;;4.87;1.20;;;10.60;96.80;;;;;;5103781;28;20410;-86
2022/04/08 04:09:12;;;;;;;7.80;1.97;;;10.60;97.00;;;;;;5103429;28;20494;-85
2022/04/08 04:11:39;;;;;;;4.80;1.50;;;10.50;97.30;;;;;;5108875;28;20428;-86
2022/04/08 04:14:07;;;;;;;13.17;2.23;;;10.50;97.30;;;;;;5103913;28;20478;-87
2022/04/08 04:16:34;;;;;;;4.40;1.50;;;10.50;97.10;;;;;;5103406;28;20947;-86
2022/04/08 04:19:03;;;;;;;4.80;1.37;;;10.70;96.80;;;;;;5102624;28;20451;-86
2022/04/08 04:21:30;;;;;;;4.77;1.30;;;10.70;96.30;;;;;;5102785;28;20442;-87
2022/04/08 04:23:57;;;;;;;3.87;1.63;;;10.70;96.50;;;;;;5103900;28;20512;-85
2022/04/08 04:26:47;;;;;;;6.00;1.60;;;10.60;96.50;;;;;;5116980;28;20456;-85
2022/04/08 04:29:14;;;;;;;7.53;1.80;;;10.60;96.40;;;;;;5116993;28;20459;-86
2022/04/08 04:34:47;;;;;;;10.00;1.80;;;10.60;96.30;;;;;;5103663;28;20482;-86
2022/04/08 04:37:14;;;;;;;6.77;1.63;;;10.50;96.30;;;;;;5097899;28;20562;-87
2022/04/08 04:39:41;;;;;;;4.60;1.53;;;10.60;96.10;;;;;;5099437;28;20429;-86
2022/04/08 04:42:08;;;;;;;7.93;1.70;;;10.50;96.80;;;;;;5100950;28;20433;-87
2022/04/08 04:44:35;;;;;;;8.23;2.20;;;10.40;96.70;;;;;;5101252;28;20545;-87
2022/04/08 04:47:03;;;;;;;6.33;1.57;;;10.60;96.60;;;;;;5103570;28;20455;-87
2022/04/08 04:49:30;;;;;;;5.70;2.07;;;10.50;96.60;;;;;;5107369;28;20570;-86
2022/04/08 04:51:58;;;;;;;7.50;2.10;;;10.50;96.60;;;;;;5098743;28;20446;-86
2022/04/08 04:54:25;;;;;;;13.25;1.90;;;10.40;96.90;;;;;;5098209;28;20485;-86
2022/04/08 04:56:52;;;;;;;6.43;2.00;;;10.50;97.00;;;;;;5099124;28;20240;-86
2022/04/08 04:59:19;;;;;;;4.97;1.87;;;10.50;97.10;;;;;;5114829;28;20538;-86
2022/04/08 05:01:46;;;;;;;7.10;1.40;;;10.40;96.80;;;;;;5111390;28;20439;-86
2022/04/08 05:04:13;;;;;;;5.47;1.57;;;10.50;96.80;;;;;;5103367;28;20427;-87
2022/04/08 05:06:40;;;;;;;5.67;1.63;;;10.40;96.90;;;;;;5106771;28;20457;-87
2022/04/08 05:09:11;;;;;;;8.88;1.70;;;10.40;96.80;;;;;;5107100;28;20864;-88
2022/04/08 05:11:39;;;;;;;7.13;1.70;;;10.50;97.00;;;;;;5108898;28;20224;-87
2022/04/08 05:14:06;;;;;;;6.80;2.67;;;10.40;97.10;;;;;;5105439;28;20561;-87
2022/04/08 05:16:33;;;;;;;7.37;2.00;;;10.40;97.30;;;;;;5104824;28;20493;-87
2022/04/08 05:19:01;;;;;;;4.50;1.60;;;10.50;97.30;;;;;;5103507;28;20538;-87
2022/04/08 05:21:29;;;;;;;6.57;1.93;;;10.70;97.00;;;;;;5098713;28;20224;-87
2022/04/08 05:23:56;;;;;;;5.67;1.40;;;10.70;97.30;;;;;;5097080;28;20451;-86
2022/04/08 05:26:26;;;;;;;5.90;1.63;;;10.60;97.50;;;;;;5134829;22;20513;-86
2022/04/08 05:31:42;;;;;;;6.83;2.40;;;10.70;97.40;;;;;;5103456;28;20453;-87
2022/04/08 05:34:09;;;;;;;12.53;1.30;;;10.80;97.30;;;;;;5107236;28;20459;-87
2022/04/08 05:36:44;;;;;;;8.87;1.67;;;10.90;97.00;;;;;;5104861;28;20587;-87
2022/04/08 05:39:11;;;;;;;5.23;2.07;;;10.80;96.90;;;;;;5104912;28;20436;-87
2022/04/08 05:41:40;;;;;;;6.93;2.60;;;10.70;97.40;;;;;;5104714;28;20453;-87
2022/04/08 05:44:09;;;;;;;7.80;2.00;;;10.80;97.50;;;;;;5106189;28;20414;-88
2022/04/08 05:46:38;;;;;;;8.40;2.90;;;10.80;97.40;;;;;;5106588;28;20479;-87
2022/04/08 05:49:05;;;;;;;8.70;3.80;;;10.90;97.30;;;;;;5110675;28;20447;-86
2022/04/08 05:51:32;;;;;;;7.40;2.30;;;10.90;97.40;;;;;;5120528;28;20447;-85
2022/04/08 05:53:59;;;;;;;5.33;1.60;;;10.80;97.40;;;;;;5114679;28;20479;-88
2022/04/08 05:56:26;;;;;;;7.47;1.90;;;10.80;97.80;;;;;;5105712;28;20470;-86
2022/04/08 06:01:35;;;;;;;6.23;1.40;;;10.70;98.70;;;;;;5118696;28;20394;-86
2022/04/08 06:04:02;;;;;;;6.23;2.00;;;10.80;98.70;;;;;;5119429;28;20504;-87
2022/04/08 06:06:30;;;;;;;7.47;1.63;;;11.00;98.60;;;;;;5119524;28;20510;-85
2022/04/08 06:08:57;;;;;;;7.83;1.90;;;10.90;99.10;;;;;;5120195;28;20502;-86
2022/04/08 06:11:23;;;;;;;8.90;2.40;;;10.80;99.90;;;;;;5108373;28;20442;-87
2022/04/08 06:13:51;;;;;;;4.83;1.47;;;10.90;99.50;;;;;;5107921;28;20504;-87
2022/04/08 06:16:23;;;;;;;5.70;1.47;;;11.00;99.10;;;;;;5105895;28;20467;-87
2022/04/08 06:18:49;;;;;;;12.17;2.30;;;10.80;98.60;;;;;;5103584;28;20435;-86
2022/04/08 06:21:16;;;;;;;5.03;1.83;;;10.70;99.90;;;;;;5102995;28;20414;-87
2022/04/08 06:23:43;;;;;;;7.30;1.40;;;10.60;99.90;;;;;;5103056;28;20900;-86
2022/04/08 06:26:16;;;;;;;4.43;1.10;;;10.40;99.90;;;;;;5103530;28;20532;-87
2022/04/08 06:28:43;;;;;;;4.57;1.80;;;10.50;99.90;;;;;;5102268;28;20415;-87
2022/04/08 06:31:10;;;;;;;8.47;1.60;;;10.40;99.90;;;;;;5102181;28;20518;-88
2022/04/08 06:33:39;;;;;;;4.50;1.43;;;10.40;99.90;;;;;;5103876;28;20561;-86
2022/04/08 06:36:12;;;;;;;6.47;2.00;;;10.50;99.90;;;;;;5104401;28;20470;-87
2022/04/08 06:38:39;;;;;;;6.10;2.13;;;10.60;99.90;;;;;;5105931;28;20439;-86
2022/04/08 06:41:06;;;;;;;4.60;1.70;;;10.60;99.90;;;;;;5106298;28;20503;-84
2022/04/08 06:43:34;;;;;;;10.07;2.37;;;10.60;99.90;;;;;;5104396;28;20550;-86
2022/04/08 06:46:11;;;;;;;6.13;1.30;;;10.50;99.90;;;;;;5110183;28;20462;-88
2022/04/08 06:48:46;;;;;;;7.03;1.93;;;10.60;99.90;;;;;;5112658;28;20482;-85
2022/04/08 06:51:13;;;;;;;5.50;1.60;;;10.60;99.90;;;;;;5109653;28;20422;-85
2022/04/08 06:53:47;;;;;;;7.73;2.17;;;10.60;99.90;;;;;;5105730;28;20479;-86
2022/04/08 06:56:23;;;;;;;6.83;1.77;;;10.50;99.90;;;;;;5107422;28;20482;-85
2022/04/08 07:01:35;;;;;;;5.60;1.77;;;10.40;99.90;;;;;;5093642;28;20545;-86
2022/04/08 07:04:04;;;;;;;4.38;1.50;;;10.40;99.90;;;;;;5107014;28;20450;-86
2022/04/08 07:06:37;;;;;;;6.53;1.90;;;10.20;99.90;;;;;;5111704;28;20308;-84
2022/04/08 07:09:10;;;;;;;7.75;2.47;;;10.20;99.90;;;;;;5117145;28;20493;-86
2022/04/08 07:11:37;;;;;;;4.33;1.43;;;10.10;99.90;;;;;;5108604;28;20200;-86
2022/04/08 07:14:05;;;;;;;5.10;1.50;;;10.10;99.90;;;;;;5103147;28;20478;-87
2022/04/08 07:16:35;;;;;;;6.90;1.87;;;10.00;99.90;;;;;;5102615;28;20437;-86
2022/04/08 07:19:33;;;;;;;6.10;1.50;;;10.00;99.90;;;;;;5101785;28;20474;-85
2022/04/08 07:22:10;;;;;;;4.30;1.40;;;10.10;99.90;;;;;;5087265;28;20262;-86
2022/04/08 07:24:41;;;;;;;6.77;1.93;;;10.00;99.90;;;;;;5109708;28;20490;-84
2022/04/08 07:27:11;;;;;;;4.63;1.60;;;10.00;99.90;;;;;;5118588;28;20445;-86
2022/04/08 07:29:40;;;;;;;6.75;1.73;;;10.10;99.90;;;;;;5109204;28;20411;-86
2022/04/08 07:32:31;;;;;;;3.05;1.15;;;9.90;99.90;;;;;;5106848;28;20197;-87
2022/04/08 07:35:00;;;;;;;7.03;2.30;;;9.90;99.90;;;;;;5112978;28;20251;-85
2022/04/08 07:37:31;;;;;;;8.33;1.83;;;9.90;99.90;;;;;;5110459;28;20435;-87
2022/04/08 07:39:59;;;;;;;4.77;2.00;;;9.90;99.90;;;;;;5103757;28;20466;-85
2022/04/08 07:42:32;;;;;;;4.30;1.40;;;9.90;99.90;;;;;;5101444;28;20465;-85
2022/04/08 07:45:04;;;;;;;4.53;1.30;;;9.80;99.90;;;;;;5100114;28;20496;-85
2022/04/08 07:47:31;;;;;;;4.93;1.17;;;9.80;99.90;;;;;;5098733;28;20834;-86
2022/04/08 07:50:01;;;;;;;4.17;1.40;;;9.80;99.90;;;;;;5098058;28;20228;-87
2022/04/08 07:52:31;;;;;;;5.60;1.43;;;9.80;99.90;;;;;;5100298;28;20484;-87
2022/04/08 07:55:02;;;;;;;6.15;1.35;;;9.90;99.90;;;;;;5100662;28;20574;-85
2022/04/08 07:57:30;;;;;;;7.23;1.33;;;9.90;99.90;;;;;;5100394;28;20199;-85
2022/04/08 07:59:57;;;;;;;6.50;1.70;;;10.00;99.90;;;;;;5100867;28;20461;-86
2022/04/08 08:02:32;;;;;;;5.23;1.50;;;10.10;99.90;;;;;;5100983;28;20455;-87
2022/04/08 08:05:01;;;;;;;4.90;1.83;;;10.10;99.90;;;;;;5107249;28;20467;-85
2022/04/08 08:11:00;;;;;;;3.13;1.10;;;10.10;99.90;;;;;;5113017;28;20485;-85
2022/04/08 08:13:45;;;;;;;2.70;0.70;;;10.10;99.90;;;;;;5097544;28;20485;-85
2022/04/08 08:16:30;;;;;;;4.40;1.53;;;10.10;99.90;;;;;;5105369;28;20220;-86
2022/04/08 08:19:01;;;;;;;3.17;1.10;;;10.10;99.90;;;;;;5102625;28;20450;-85
2022/04/08 08:24:38;;;;;;;3.53;0.97;;;10.20;99.90;;;;;;5104318;28;20455;-85
2022/04/08 08:27:09;;;;;;;4.50;1.30;;;10.20;99.90;;;;;;5102877;28;20544;-86
2022/04/08 08:29:41;;;;;;;3.00;0.93;;;10.20;99.90;;;;;;5100484;28;20455;-86
2022/04/08 08:34:56;;;;;;;3.80;1.03;;;10.20;99.90;;;;;;5096546;28;20520;-85
2022/04/08 08:37:49;;;;;;;4.50;1.23;;;10.00;99.90;;;;;;5099932;28;20457;-86
2022/04/08 08:43:35;;;;;;;2.90;0.90;;;10.10;99.90;;;;;;5100273;28;20461;-85
2022/04/08 08:46:08;;;;;;;4.17;1.00;;;10.00;99.90;;;;;;5115266;28;20525;-86
2022/04/08 08:48:44;;;;;;;4.57;1.87;;;10.10;99.90;;;;;;5114232;28;20643;-85
2022/04/08 08:51:16;;;;;;;3.87;1.10;;;10.20;99.90;;;;;;5107848;28;20446;-86
2022/04/08 08:53:57;;;;;;;4.00;1.20;;;10.20;99.90;;;;;;5101328;28;20570;-87
2022/04/08 08:56:25;;;;;;;3.63;1.00;;;10.20;99.90;;;;;;5100326;28;20501;-87
2022/04/08 08:59:08;;;;;;;3.20;1.07;;;10.20;99.90;;;;;;5101471;28;20455;-86
2022/04/08 09:01:36;;;;;;;5.33;1.47;;;10.30;99.90;;;;;;5102372;28;20466;-86
2022/04/08 09:04:22;;;;;;;5.70;3.33;;;10.30;99.90;;;;;;5105450;28;20488;-86
2022/04/08 09:06:50;;;;;;;4.43;1.60;;;10.20;99.90;;;;;;5106551;28;20470;-86
2022/04/08 09:09:39;;;;;;;2.87;0.90;;;10.10;99.90;;;;;;5111217;28;20481;-86
2022/04/08 09:12:15;;;;;;;4.10;1.33;;;10.00;99.90;;;;;;5108211;28;20418;-86
2022/04/08 09:14:55;;;;;;;3.67;1.27;;;10.20;99.90;;;;;;5109345;28;20549;-86
2022/04/08 09:17:24;;;;;;;5.20;1.23;;;10.20;99.90;;;;;;5107987;28;20435;-86
2022/04/08 09:19:58;;;;;;;3.70;1.67;;;10.30;99.90;;;;;;5107428;28;20491;-87
2022/04/08 09:25:30;;;;;;;3.90;1.33;;;10.20;99.90;;;;;;5106418;28;20480;-87
2022/04/08 09:28:08;;;;;;;3.70;1.20;;;10.30;99.90;;;;;;5107322;28;20435;-85
2022/04/08 09:30:44;;;;;;;3.03;0.97;;;10.30;99.90;;;;;;5114356;28;20439;-85
2022/04/08 09:36:07;;;;;;;3.73;1.10;;;10.30;99.90;;;;;;5119597;28;20445;-86
2022/04/08 09:38:49;;;;;;;3.53;1.10;;;10.20;99.90;;;;;;5119443;28;20491;-86
2022/04/08 09:41:20;;;;;;;7.80;1.00;;;10.20;99.90;;;;;;5115505;28;20500;-87
2022/04/08 09:43:47;;;;;;;5.23;1.67;;;10.20;99.90;;;;;;5111389;28;20522;-87
2022/04/08 09:46:31;;;;;;;3.40;1.10;;;10.20;99.90;;;;;;5107140;28;20477;-84
2022/04/08 09:49:04;;;;;;;3.87;1.53;;;10.10;99.90;;;;;;5107427;28;20509;-86
2022/04/08 09:51:50;;;;;;;3.85;1.20;;;10.10;99.90;;;;;;5106239;28;20436;-87
2022/04/08 09:54:21;;;;;;;2.57;0.97;;;10.00;99.90;;;;;;5104979;28;20223;-86
2022/04/08 09:57:02;;;;;;;2.80;0.90;;;9.90;99.90;;;;;;5115769;28;20468;-84
2022/04/08 09:59:54;;;;;;;2.50;0.70;;;10.00;99.90;;;;;;5120305;28;20480;-85
2022/04/08 10:02:30;;;;;;;2.50;0.87;;;10.10;99.90;;;;;;5119886;28;20451;-85
2022/04/08 10:05:14;;;;;;;3.97;1.17;;;10.00;99.90;;;;;;5120077;28;20462;-86
2022/04/08 10:08:12;;;;;;;2.70;0.83;;;9.90;99.90;;;;;;5111141;28;20461;-86
2022/04/08 10:11:05;;;;;;;2.27;0.70;;;9.90;99.90;;;;;;5105544;28;20474;-86
2022/04/08 10:14:12;;;;;;;2.77;0.83;;;10.10;99.90;;;;;;5102453;28;20431;-86
2022/04/08 10:17:06;;;;;;;2.60;0.70;;;9.80;99.90;;;;;;5102083;28;20485;-88
2022/04/08 10:19:35;;;;;;;2.50;0.87;;;10.00;99.90;;;;;;5104796;28;20219;-86
2022/04/08 10:22:27;;;;;;;2.70;0.60;;;10.00;99.90;;;;;;5103162;28;20465;-87
2022/04/08 10:25:03;;;;;;;3.13;1.00;;;10.10;99.90;;;;;;5102348;28;20483;-86
2022/04/08 10:27:34;;;;;;;2.70;0.80;;;10.20;99.90;;;;;;5101223;28;20521;-86
2022/04/08 10:30:15;;;;;;;3.20;1.00;;;9.90;99.90;;;;;;5101259;28;20422;-86
2022/04/08 10:32:44;;;;;;;4.20;0.90;;;9.70;99.90;;;;;;5101458;28;20470;-86
2022/04/08 10:35:29;;;;;;;2.57;0.90;;;9.50;99.90;;;;;;5101843;28;20493;-88
2022/04/08 10:38:06;;;;;;;3.00;0.90;;;9.70;99.90;;;;;;5102063;28;21031;-86
2022/04/08 10:40:35;;;;;;;2.55;0.60;;;9.70;99.90;;;;;;5102341;28;20460;-87
2022/04/08 10:43:48;;;;;;;3.63;0.90;;;9.70;99.90;;;;;;5103977;28;20572;-87
2022/04/08 10:50:30;;;;;;;2.93;1.13;;;9.60;99.90;;;;;;5107213;28;20240;-89
2022/04/08 10:53:07;;;;;;;3.07;1.23;;;9.60;99.90;;;;;;5115201;28;20438;-86
2022/04/08 10:55:53;;;;;;;2.60;0.93;;;9.50;99.90;;;;;;5112406;28;20819;-86
2022/04/08 10:58:43;;;;;;;4.00;1.27;;;9.50;99.90;;;;;;5104619;28;20269;-86
2022/04/08 11:01:25;;;;;;;3.70;1.00;;;9.40;99.90;;;;;;5103509;28;20205;-87
2022/04/08 11:04:00;;;;;;;3.97;1.20;;;9.10;99.90;;;;;;5102565;28;20847;-86
2022/04/08 11:06:52;;;;;;;4.38;1.50;;;9.10;99.90;;;;;;5107593;28;20466;-86
2022/04/08 11:09:46;;;;;;;4.88;1.40;;;9.00;99.90;;;;;;5104863;28;20349;-87
2022/04/08 11:12:16;;;;;;;4.30;1.10;;;9.00;99.90;;;;;;5087381;28;20230;-84
2022/04/08 11:14:54;;;;;;;4.10;1.07;;;9.20;99.90;;;;;;5104612;28;20455;-85
2022/04/08 11:20:24;;;;;;;2.53;0.77;;;9.30;99.90;;;;;;5109977;28;20538;-85
2022/04/08 11:23:02;;;;;;;3.63;1.23;;;9.30;99.90;;;;;;5106462;28;20459;-86
2022/04/08 11:25:48;;;;;;;3.47;0.90;;;9.30;99.90;;;;;;5107463;28;20248;-87
2022/04/08 11:28:25;;;;;;;2.90;0.88;;;9.10;99.90;;;;;;5107690;28;20209;-86
2022/04/08 11:30:59;;;;;;;3.43;1.13;;;9.10;99.90;;;;;;5113828;28;20228;-85
2022/04/08 11:33:33;;;;;;;2.97;0.80;;;9.10;99.90;;;;;;5114308;28;20545;-87
2022/04/08 11:36:03;;;;;;;2.90;1.20;;;9.20;99.90;;;;;;5113066;28;20501;-85
2022/04/08 11:38:33;;;;;;;4.38;1.20;;;9.10;99.90;;;;;;5108760;28;20212;-86
2022/04/08 11:41:04;;;;;;;6.13;1.60;;;9.00;99.90;;;;;;5104872;28;20200;-87
2022/04/08 12:42:22;;;;;;;;;;;;;;;;;;;;;
2022/04/08 12:48:51;;;;;;;3.58;1.80;;;8.80;99.90;;;;;;4877320;29;20456;-86
2022/04/08 13:21:03;;;;;;;3.10;1.40;;;8.60;99.90;;;;;;5052849;28;20224;-86
2022/04/08 13:27:08;;;;;;;3.88;1.73;;;8.50;99.90;;;;;;4990819;28;20251;-86
2022/04/08 13:29:45;;;;;;;3.25;1.67;;;8.40;99.90;;;;;;5067879;28;20188;-86
2022/04/08 13:32:20;;;;;;;3.25;1.92;;;8.40;99.90;;;;;;5062241;28;20206;-86
2022/04/08 13:35:35;;;;;;;3.30;1.55;;;8.50;99.90;;;;;;5060061;28;20237;-86
2022/04/08 13:38:50;;;;;;;6.40;3.00;;;8.40;99.90;;;;;;5001564;28;20227;-86
2022/04/08 13:45:13;;;;;;;4.85;3.08;;;8.40;99.90;;;;;;5014655;28;20351;-86
2022/04/08 13:48:22;;;;;;;3.63;2.17;;;8.60;99.90;;;;;;5073082;28;20206;-86
2022/04/08 13:54:38;;;;;;;;;;;;;;;;;;;;;
2022/04/08 13:57:46;;;;;;;6.60;2.88;;;8.60;99.90;;;;;;5060219;28;20241;-86
2022/04/08 14:00:38;;;;;;;4.40;2.95;;;8.70;99.90;;;;;;5062035;28;20235;-87
2022/04/08 14:03:20;;;;;;;4.93;2.83;;;8.80;99.90;;;;;;5061141;28;20226;-86
2022/04/08 14:05:56;;;;;;;5.28;2.70;;;8.90;99.90;;;;;;5067254;28;20229;-86
2022/04/08 14:08:50;;;;;;;4.70;3.00;;;9.10;99.90;;;;;;5074890;28;20269;-86
2022/04/08 14:11:27;;;;;;;5.85;3.10;;;9.30;99.90;;;;;;5066965;28;20449;-87
2022/04/08 14:14:03;;;;;;;6.20;2.50;;;9.30;99.90;;;;;;5061816;28;20233;-87
2022/04/08 14:16:49;;;;;;;3.63;2.45;;;9.30;99.90;;;;;;5069343;28;20266;-86
2022/04/08 14:19:35;;;;;;;5.80;3.30;;;9.30;99.90;;;;;;5078184;28;20202;-87
2022/04/08 14:22:24;;;;;;;5.47;3.30;;;9.30;99.90;;;;;;5074231;28;20451;-87
2022/04/08 14:24:52;;;;;;;5.50;3.90;;;9.40;99.90;;;;;;5064149;28;20198;-89
2022/04/08 14:27:24;;;;;;;6.03;3.67;;;9.50;99.90;;;;;;5063035;28;20439;-88
2022/04/08 14:30:03;;;;;;;5.63;4.10;;;9.70;99.90;;;;;;5061601;28;20816;-87
2022/04/08 14:33:24;;;;;;;6.10;4.13;;;9.90;99.90;;;;;;5061516;28;20455;-87
2022/04/08 14:36:15;;;;;;;4.97;3.43;;;10.10;99.90;;;;;;5060025;28;20484;-88
2022/04/08 14:39:19;;;;;;;8.83;4.27;;;10.30;99.90;;;;;;5061460;28;20503;-85
2022/04/08 14:48:25;;;;;;;;;;;;;;;;;;;;;
2022/04/08 14:54:51;;;;;;;5.97;3.50;;;10.50;99.90;;;;;;5043594;28;20489;-86
2022/04/08 15:00:51;;;;;;;6.33;2.57;;;10.80;99.90;;;;;;5105347;28;20488;-87
2022/04/08 15:03:41;;;;;;;7.20;2.50;;;10.90;99.90;;;;;;5108925;28;20504;-87
2022/04/08 15:06:14;;;;;;;4.63;1.30;;;11.20;99.90;;;;;;5101277;28;20447;-85
2022/04/08 15:08:45;;;;;;;3.57;1.23;;;11.50;99.90;;;;;;5102102;28;20508;-85
2022/04/08 15:11:16;;;;;;;4.67;1.63;;;11.70;99.90;;;;;;5100424;28;20459;-86
2022/04/08 15:13:43;;;;;;;3.50;1.40;;;12.00;99.90;;;;;;5100483;28;20462;-86
2022/04/08 15:16:11;;;;;;;2.90;0.97;;;12.20;99.90;;;;;;5102729;28;20835;-86
2022/04/08 15:18:38;;;;;;;6.10;1.60;;;12.50;99.90;;;;;;5101079;28;20483;-85
2022/04/08 15:21:07;;;;;;;3.30;1.30;;;12.80;99.90;;;;;;5102631;28;20457;-85
2022/04/08 15:23:53;;;;;;;3.73;1.30;;;13.10;99.90;;;;;;5103035;28;20863;-86
2022/04/08 15:26:33;;;;;;;4.03;1.63;;;13.20;99.90;;;;;;5108557;28;20836;-86
2022/04/08 15:29:01;;;;;;;3.30;1.20;;;13.30;99.90;;;;;;5105327;28;20441;-86
2022/04/08 15:31:42;;;;;;;5.57;1.40;;;13.30;99.90;;;;;;5102439;28;20440;-86
2022/04/08 15:34:14;;;;;;;3.70;1.10;;;13.30;99.90;;;;;;5113826;28;20463;-87
2022/04/08 15:36:45;;;;;;;3.60;1.37;;;13.60;99.90;;;;;;5116506;28;20417;-85
2022/04/08 15:39:18;;;;;;;3.13;1.20;;;14.20;99.90;;;;;;5118520;28;20410;-86
2022/04/08 15:41:53;;;;;;;4.30;1.47;;;14.70;99.90;;;;;;5117758;28;20422;-87
2022/04/08 15:44:25;;;;;;;3.10;1.10;;;15.00;99.90;;;;;;5110665;28;20445;-86
2022/04/08 15:46:59;;;;;;;8.20;1.30;;;15.20;99.90;;;;;;5104935;28;20417;-85
2022/04/08 15:49:35;;;;;;;2.77;0.93;;;14.90;99.90;;;;;;5100867;28;20416;-87
2022/04/08 15:52:04;;;;;;;4.40;2.03;;;15.00;99.90;;;;;;5105389;28;20443;-85
2022/04/08 15:54:37;;;;;;;3.70;1.00;;;14.90;99.90;;;;;;5108116;28;20455;-87